createdAt,value
2023-05-22T00:01:39.070Z,16.21
2023-05-22T00:04:05.594Z,16.16
2023-05-22T00:06:34.009Z,16.07
2023-05-22T00:09:00.829Z,15.99
2023-05-22T00:11:27.510Z,15.94
2023-05-22T00:13:54.099Z,15.93
2023-05-22T00:16:20.752Z,15.87
2023-05-22T00:18:47.519Z,15.84
2023-05-22T00:21:14.317Z,15.74
2023-05-22T00:23:41.490Z,15.72
2023-05-22T00:26:08.074Z,15.64
2023-05-22T00:28:34.635Z,15.57
2023-05-22T00:31:01.167Z,15.52
2023-05-22T00:33:27.719Z,15.49
2023-05-22T00:35:54.170Z,15.46
2023-05-22T00:38:32.718Z,15.43
2023-05-22T00:41:04.422Z,15.41
2023-05-22T00:43:31.383Z,15.35
2023-05-22T00:45:58.258Z,15.31
2023-05-22T00:48:25.201Z,15.30
2023-05-22T00:50:53.794Z,15.25
2023-05-22T00:53:21.859Z,15.17
2023-05-22T00:55:48.637Z,15.10
2023-05-22T00:58:17.973Z,15.04
2023-05-22T01:00:46.632Z,14.99
2023-05-22T01:03:14.575Z,14.99
2023-05-22T01:05:41.960Z,14.97
2023-05-22T01:08:09.100Z,14.90
2023-05-22T01:10:37.371Z,14.88
2023-05-22T01:13:42.520Z,14.82
2023-05-22T01:16:38.521Z,14.82
2023-05-22T01:19:12.431Z,14.78
2023-05-22T01:22:12.054Z,14.79
2023-05-22T01:25:11.915Z,14.76
2023-05-22T01:28:01.255Z,14.75
2023-05-22T01:30:50.109Z,14.69
2023-05-22T01:33:18.986Z,14.63
2023-05-22T01:35:48.608Z,14.64
2023-05-22T01:38:16.795Z,14.58
2023-05-22T01:40:45.725Z,14.52
2023-05-22T01:43:14.651Z,14.48
2023-05-22T01:45:41.084Z,14.40
2023-05-22T01:48:07.680Z,14.43
2023-05-22T01:50:34.483Z,14.37
2023-05-22T01:53:07.221Z,14.27
2023-05-22T01:55:55.869Z,14.32
2023-05-22T01:58:37.529Z,14.33
2023-05-22T02:01:04.278Z,14.27
2023-05-22T02:03:32.937Z,14.23
2023-05-22T02:06:02.124Z,14.18
2023-05-22T02:08:29.712Z,14.13
2023-05-22T02:10:56.995Z,14.13
2023-05-22T02:13:23.963Z,14.08
2023-05-22T02:15:51.375Z,14.08
2023-05-22T02:18:17.983Z,14.01
2023-05-22T02:20:48.793Z,13.95
2023-05-22T02:23:15.233Z,13.96
2023-05-22T02:25:41.675Z,13.90
2023-05-22T02:28:08.162Z,13.87
2023-05-22T02:30:34.995Z,13.86
2023-05-22T02:33:05.476Z,13.85
2023-05-22T02:35:32.476Z,13.82
2023-05-22T02:37:58.930Z,13.81
2023-05-22T02:40:25.346Z,13.74
2023-05-22T02:42:51.949Z,13.79
2023-05-22T02:45:18.545Z,13.74
2023-05-22T02:47:45.016Z,13.66
2023-05-22T02:50:11.922Z,13.68
2023-05-22T02:52:39.352Z,13.65
2023-05-22T02:55:07.342Z,13.64
2023-05-22T02:57:33.909Z,13.65
2023-05-22T03:00:01.558Z,13.60
2023-05-22T03:02:28.494Z,13.62
2023-05-22T03:04:55.069Z,13.65
2023-05-22T03:07:21.516Z,13.63
2023-05-22T03:09:47.958Z,13.63
2023-05-22T03:12:14.580Z,13.56
2023-05-22T03:14:40.981Z,13.56
2023-05-22T03:17:07.513Z,13.50
2023-05-22T03:19:34.077Z,13.52
2023-05-22T03:22:00.632Z,13.51
2023-05-22T03:24:27.283Z,13.45
2023-05-22T03:26:53.738Z,13.46
2023-05-22T03:29:20.460Z,13.42
2023-05-22T03:31:47.281Z,13.44
2023-05-22T03:34:13.934Z,13.30
2023-05-22T03:36:41.294Z,13.35
2023-05-22T03:39:08.021Z,13.34
2023-05-22T03:41:34.523Z,13.30
2023-05-22T03:44:03.065Z,13.24
2023-05-22T03:46:29.759Z,13.29
2023-05-22T03:48:56.294Z,13.29
2023-05-22T03:51:22.799Z,13.28
2023-05-22T03:53:49.208Z,13.28
2023-05-22T03:56:16.446Z,13.25
2023-05-22T03:58:42.938Z,13.23
2023-05-22T04:01:10.184Z,13.17
2023-05-22T04:03:39.812Z,13.18
2023-05-22T04:06:07.482Z,13.14
2023-05-22T04:08:34.135Z,13.15
2023-05-22T04:11:00.780Z,13.15
2023-05-22T04:13:27.531Z,13.15
2023-05-22T04:15:54.264Z,13.17
2023-05-22T04:18:20.942Z,13.17
2023-05-22T04:20:47.905Z,13.21
2023-05-22T04:23:14.483Z,13.22
2023-05-22T04:25:41.004Z,13.22
2023-05-22T04:28:09.430Z,13.25
2023-05-22T04:30:40.091Z,13.29
2023-05-22T04:33:08.397Z,13.27
2023-05-22T04:35:35.282Z,13.27
2023-05-22T04:38:06.786Z,13.35
2023-05-22T04:40:34.275Z,13.39
2023-05-22T04:43:01.488Z,13.44
2023-05-22T04:45:28.865Z,13.46
2023-05-22T04:47:56.192Z,13.49
2023-05-22T04:50:23.790Z,13.53
2023-05-22T04:52:50.777Z,13.56
2023-05-22T04:55:17.616Z,13.57
2023-05-22T04:57:45.089Z,13.62
2023-05-22T05:00:14.340Z,13.62
2023-05-22T05:02:41.257Z,13.68
2023-05-22T05:05:08.487Z,13.75
2023-05-22T05:07:39.001Z,13.78
2023-05-22T05:10:06.957Z,13.84
2023-05-22T05:12:33.563Z,13.89
2023-05-22T05:15:00.342Z,13.95
2023-05-22T05:17:28.776Z,14.03
2023-05-22T05:19:55.444Z,14.13
2023-05-22T05:22:21.922Z,14.20
2023-05-22T05:24:48.504Z,14.26
2023-05-22T05:27:15.367Z,14.33
2023-05-22T05:29:42.460Z,14.48
2023-05-22T05:32:09.894Z,14.58
2023-05-22T05:34:36.412Z,14.67
2023-05-22T05:37:03.294Z,14.81
2023-05-22T05:39:29.816Z,14.93
2023-05-22T05:41:56.293Z,15.05
2023-05-22T05:44:22.898Z,15.19
2023-05-22T05:46:49.555Z,15.33
2023-05-22T05:49:16.065Z,15.42
2023-05-22T05:51:42.467Z,15.54
2023-05-22T05:54:09.062Z,15.69
2023-05-22T05:56:35.894Z,15.83
2023-05-22T05:59:02.486Z,15.87
2023-05-22T06:01:29.489Z,16.04
2023-05-22T06:03:56.285Z,16.18
2023-05-22T06:06:26.312Z,16.34
2023-05-22T06:08:53.111Z,16.42
2023-05-22T06:11:19.657Z,16.52
2023-05-22T06:13:46.161Z,16.69
2023-05-22T06:16:12.878Z,16.81
2023-05-22T06:18:39.366Z,16.96
2023-05-22T06:21:06.938Z,17.06
2023-05-22T06:23:33.588Z,17.22
2023-05-22T06:26:00.322Z,17.44
2023-05-22T06:28:26.978Z,17.50
2023-05-22T06:30:53.524Z,17.58
2023-05-22T06:33:20.259Z,17.72
2023-05-22T06:35:46.863Z,17.89
2023-05-22T06:38:13.437Z,17.98
2023-05-22T06:40:40.617Z,18.06
2023-05-22T06:43:07.442Z,18.11
2023-05-22T06:45:34.055Z,18.25
2023-05-22T06:48:00.821Z,18.39
2023-05-22T06:50:27.437Z,18.66
2023-05-22T06:52:54.044Z,18.78
2023-05-22T06:55:20.634Z,19.02
2023-05-22T06:57:47.199Z,19.15
2023-05-22T07:00:14.696Z,19.32
2023-05-22T07:02:41.481Z,19.45
2023-05-22T07:05:09.193Z,19.64
2023-05-22T07:07:35.950Z,19.77
2023-05-22T07:10:03.082Z,19.92
2023-05-22T07:12:29.677Z,19.97
2023-05-22T07:14:57.832Z,20.16
2023-05-22T07:17:24.357Z,20.19
2023-05-22T07:19:50.970Z,20.30
2023-05-22T07:22:17.664Z,20.29
2023-05-22T07:24:44.190Z,20.42
2023-05-22T07:27:11.463Z,20.53
2023-05-22T07:29:38.293Z,20.56
2023-05-22T07:32:05.159Z,20.49
2023-05-22T07:34:34.395Z,20.51
2023-05-22T07:37:07.147Z,20.55
2023-05-22T07:39:34.285Z,20.70
2023-05-22T07:42:01.956Z,20.66
2023-05-22T07:44:28.706Z,20.68
2023-05-22T07:46:55.771Z,20.85
2023-05-22T07:49:23.726Z,21.06
2023-05-22T07:51:50.711Z,21.15
2023-05-22T07:54:18.267Z,21.26
2023-05-22T07:56:45.717Z,21.34
2023-05-22T07:59:12.427Z,21.55
2023-05-22T08:01:40.264Z,21.60
2023-05-22T08:04:07.099Z,21.59
2023-05-22T08:06:37.126Z,21.63
2023-05-22T08:09:04.851Z,21.70
2023-05-22T08:11:31.662Z,21.87
2023-05-22T08:13:58.172Z,22.01
2023-05-22T08:16:24.898Z,22.19
2023-05-22T08:18:51.515Z,22.27
2023-05-22T08:21:18.792Z,22.19
2023-05-22T08:23:45.521Z,22.27
2023-05-22T08:26:12.082Z,22.45
2023-05-22T08:28:42.019Z,22.55
2023-05-22T08:31:08.751Z,22.60
2023-05-22T08:33:35.207Z,22.69
2023-05-22T08:36:01.851Z,22.81
2023-05-22T08:38:28.323Z,22.77
2023-05-22T08:40:58.014Z,22.96
2023-05-22T08:43:24.819Z,22.89
2023-05-22T08:45:57.797Z,23.00
2023-05-22T08:48:24.718Z,23.13
2023-05-22T08:50:57.508Z,23.18
2023-05-22T08:53:25.748Z,23.26
2023-05-22T08:55:53.693Z,23.32
2023-05-22T08:58:21.104Z,23.24
2023-05-22T09:00:48.245Z,23.31
2023-05-22T09:03:15.770Z,23.33
2023-05-22T09:05:42.555Z,23.48
2023-05-22T09:08:19.627Z,23.48
2023-05-22T09:10:47.399Z,23.69
2023-05-22T09:13:25.261Z,23.67
2023-05-22T09:15:51.917Z,23.69
2023-05-22T09:18:18.605Z,23.72
2023-05-22T09:20:45.219Z,23.88
2023-05-22T09:23:14.446Z,23.87
2023-05-22T09:25:42.890Z,24.02
2023-05-22T09:28:11.188Z,24.07
2023-05-22T09:30:37.854Z,24.10
2023-05-22T09:33:07.083Z,24.15
2023-05-22T09:35:35.231Z,24.08
2023-05-22T09:38:02.000Z,24.15
2023-05-22T09:40:29.365Z,24.15
2023-05-22T09:42:56.090Z,24.16
2023-05-22T09:45:26.419Z,24.34
2023-05-22T09:47:53.096Z,24.43
2023-05-22T09:50:19.808Z,24.46
2023-05-22T09:52:48.673Z,24.37
2023-05-22T09:55:16.582Z,24.50
2023-05-22T09:57:44.344Z,24.71
2023-05-22T10:00:17.878Z,24.78
2023-05-22T10:02:46.915Z,24.89
2023-05-22T10:05:21.985Z,24.88
2023-05-22T10:07:51.083Z,24.98
2023-05-22T10:10:21.356Z,24.95
2023-05-22T10:12:53.410Z,24.99
2023-05-22T10:15:21.010Z,25.18
2023-05-22T10:17:48.813Z,25.22
2023-05-22T10:20:16.866Z,25.26
2023-05-22T10:22:44.029Z,25.34
2023-05-22T10:25:11.406Z,25.38
2023-05-22T10:27:40.343Z,25.37
2023-05-22T10:30:09.722Z,25.35
2023-05-22T10:33:18.106Z,25.45
2023-05-22T10:35:47.772Z,25.65
2023-05-22T10:38:32.657Z,25.56
2023-05-22T10:40:59.484Z,25.68
2023-05-22T10:43:30.796Z,25.55
2023-05-22T10:46:04.927Z,25.67
2023-05-22T10:48:39.250Z,25.78
2023-05-22T10:51:09.136Z,26.09
2023-05-22T10:53:36.423Z,26.13
2023-05-22T10:56:16.762Z,26.14
2023-05-22T10:58:45.557Z,26.35
2023-05-22T11:01:17.569Z,26.37
2023-05-22T11:04:02.165Z,26.47
2023-05-22T11:06:34.754Z,26.48
2023-05-22T11:09:32.680Z,26.51
2023-05-22T11:12:28.498Z,26.56
2023-05-22T11:14:59.467Z,26.67
2023-05-22T11:17:30.804Z,26.67
2023-05-22T11:20:01.282Z,26.70
2023-05-22T11:22:35.152Z,26.58
2023-05-22T11:25:05.488Z,26.44
2023-05-22T11:27:32.162Z,26.49
2023-05-22T11:29:59.976Z,26.61
2023-05-22T11:32:27.595Z,26.66
2023-05-22T11:34:56.763Z,26.76
2023-05-22T11:37:23.796Z,26.89
2023-05-22T11:39:52.208Z,27.03
2023-05-22T11:42:19.618Z,27.19
2023-05-22T11:44:46.306Z,27.10
2023-05-22T11:47:12.900Z,27.22
2023-05-22T11:49:42.174Z,27.29
2023-05-22T11:52:09.798Z,27.51
2023-05-22T11:54:38.749Z,27.61
2023-05-22T11:57:09.641Z,27.72
2023-05-22T11:59:36.616Z,27.65
2023-05-22T12:02:03.355Z,27.80
2023-05-22T12:04:30.035Z,27.90
2023-05-22T12:06:57.068Z,27.79
2023-05-22T12:09:24.029Z,27.47
2023-05-22T12:11:50.861Z,27.45
2023-05-22T12:14:17.589Z,27.46
2023-05-22T12:16:44.706Z,27.46
2023-05-22T12:19:22.913Z,27.70
2023-05-22T12:21:51.247Z,27.88
2023-05-22T12:24:23.247Z,28.11
2023-05-22T12:26:53.644Z,28.37
2023-05-22T12:29:22.730Z,28.49
2023-05-22T12:31:49.783Z,28.13
2023-05-22T12:34:18.536Z,28.33
2023-05-22T12:36:46.682Z,28.36
2023-05-22T12:39:18.525Z,28.41
2023-05-22T12:41:46.137Z,28.43
2023-05-22T12:44:15.521Z,28.34
2023-05-22T12:46:42.805Z,28.35
2023-05-22T12:49:10.634Z,28.29
2023-05-22T12:51:37.276Z,28.24
2023-05-22T12:54:04.234Z,28.44
2023-05-22T12:56:31.812Z,28.42
2023-05-22T12:58:58.690Z,28.44
2023-05-22T13:01:25.765Z,28.44
2023-05-22T13:03:52.725Z,28.49
2023-05-22T13:06:20.524Z,28.51
2023-05-22T13:08:47.195Z,28.58
2023-05-22T13:11:13.899Z,28.56
2023-05-22T13:13:40.465Z,28.48
2023-05-22T13:16:07.115Z,28.46
2023-05-22T13:18:33.671Z,28.57
2023-05-22T13:21:00.682Z,28.47
2023-05-22T13:23:27.221Z,28.63
2023-05-22T13:25:54.788Z,28.81
2023-05-22T13:28:21.359Z,28.88
2023-05-22T13:30:47.836Z,28.87
2023-05-22T13:33:14.409Z,28.64
2023-05-22T13:35:41.113Z,28.51
2023-05-22T13:38:08.977Z,28.19
2023-05-22T13:40:35.554Z,28.25
2023-05-22T13:43:02.223Z,28.33
2023-05-22T13:45:28.737Z,28.36
2023-05-22T13:47:55.860Z,28.36
2023-05-22T13:50:22.708Z,28.65
2023-05-22T13:52:49.262Z,28.57
2023-05-22T13:55:16.050Z,28.68
2023-05-22T13:57:42.601Z,28.59
2023-05-22T14:00:10.044Z,28.49
2023-05-22T14:02:39.540Z,28.36
2023-05-22T14:05:06.302Z,28.38
2023-05-22T14:07:32.794Z,28.43
2023-05-22T14:10:01.171Z,28.56
2023-05-22T14:12:28.182Z,28.66
2023-05-22T14:14:54.756Z,28.69
2023-05-22T14:17:21.253Z,28.77
2023-05-22T14:19:47.894Z,28.75
2023-05-22T14:22:14.456Z,28.77
2023-05-22T14:24:40.923Z,28.53
2023-05-22T14:27:07.401Z,28.59
2023-05-22T14:29:33.963Z,28.72
2023-05-22T14:32:04.908Z,28.77
2023-05-22T14:34:31.790Z,28.60
2023-05-22T14:36:58.712Z,28.64
2023-05-22T14:39:25.957Z,28.73
2023-05-22T14:41:53.469Z,28.39
2023-05-22T14:44:22.631Z,28.49
2023-05-22T14:46:52.117Z,28.59
2023-05-22T14:49:18.784Z,28.60
2023-05-22T14:51:48.638Z,28.65
2023-05-22T14:54:18.840Z,28.61
2023-05-22T14:56:45.986Z,28.36
2023-05-22T14:59:14.343Z,28.21
2023-05-22T15:01:41.429Z,28.30
2023-05-22T15:04:08.851Z,28.28
2023-05-22T15:06:36.115Z,28.21
2023-05-22T15:09:02.930Z,28.24
2023-05-22T15:11:29.433Z,28.19
2023-05-22T15:13:56.216Z,28.08
2023-05-22T15:16:22.857Z,28.05
2023-05-22T15:18:50.605Z,27.98
2023-05-22T15:21:17.382Z,28.14
2023-05-22T15:23:44.060Z,28.06
2023-05-22T15:26:10.887Z,27.98
2023-05-22T15:28:37.500Z,27.94
2023-05-22T15:31:03.994Z,27.96
2023-05-22T15:33:30.768Z,27.78
2023-05-22T15:35:57.333Z,27.72
2023-05-22T15:38:23.750Z,27.77
2023-05-22T15:40:50.246Z,27.69
2023-05-22T15:43:16.913Z,27.57
2023-05-22T15:45:47.107Z,27.61
2023-05-22T15:48:13.978Z,27.59
2023-05-22T15:50:40.691Z,27.58
2023-05-22T15:53:07.310Z,27.58
2023-05-22T15:55:33.975Z,27.51
2023-05-22T15:58:01.183Z,27.54
2023-05-22T16:00:27.771Z,27.54
2023-05-22T16:02:54.299Z,27.44
2023-05-22T16:05:21.075Z,27.38
2023-05-22T16:07:47.598Z,27.20
2023-05-22T16:10:14.178Z,27.19
2023-05-22T16:12:41.537Z,27.10
2023-05-22T16:15:08.848Z,27.09
2023-05-22T16:17:35.360Z,27.01
2023-05-22T16:20:02.052Z,26.97
2023-05-22T16:22:40.077Z,26.88
2023-05-22T16:25:17.779Z,26.85
2023-05-22T16:27:44.716Z,26.75
2023-05-22T16:30:12.109Z,26.81
2023-05-22T16:32:38.756Z,26.70
2023-05-22T16:35:05.802Z,26.69
2023-05-22T16:37:33.696Z,26.57
2023-05-22T16:40:00.307Z,26.51
2023-05-22T16:42:27.188Z,26.39
2023-05-22T16:44:53.789Z,26.27
2023-05-22T16:47:21.577Z,26.20
2023-05-22T16:49:48.122Z,26.12
2023-05-22T16:52:14.754Z,26.00
2023-05-22T16:54:41.202Z,25.92
2023-05-22T16:57:07.721Z,25.84
2023-05-22T16:59:34.577Z,25.71
2023-05-22T17:02:01.161Z,25.59
2023-05-22T17:04:27.757Z,25.51
2023-05-22T17:06:55.987Z,25.50
2023-05-22T17:09:22.431Z,25.39
2023-05-22T17:11:49.210Z,25.40
2023-05-22T17:14:15.881Z,25.37
2023-05-22T17:16:42.525Z,25.32
2023-05-22T17:19:09.887Z,25.27
2023-05-22T17:21:36.944Z,25.23
2023-05-22T17:24:03.796Z,25.23
2023-05-22T17:26:30.430Z,25.23
2023-05-22T17:28:56.978Z,25.16
2023-05-22T17:31:23.784Z,25.25
2023-05-22T17:33:50.765Z,25.31
2023-05-22T17:36:17.196Z,25.26
2023-05-22T17:38:43.843Z,25.19
2023-05-22T17:41:10.386Z,24.94
2023-05-22T17:43:38.218Z,24.86
2023-05-22T17:46:05.774Z,24.69
2023-05-22T17:48:34.089Z,24.57
2023-05-22T17:51:00.845Z,24.51
2023-05-22T17:53:32.030Z,24.41
2023-05-22T17:55:58.758Z,24.32
2023-05-22T17:58:25.308Z,24.25
2023-05-22T18:00:52.158Z,24.15
2023-05-22T18:03:21.815Z,24.07
2023-05-22T18:05:49.737Z,24.02
2023-05-22T18:08:17.397Z,23.84
2023-05-22T18:10:44.283Z,23.81
2023-05-22T18:13:10.875Z,23.64
2023-05-22T18:15:37.554Z,23.53
2023-05-22T18:18:04.461Z,23.47
2023-05-22T18:20:32.995Z,23.29
2023-05-22T18:23:00.205Z,23.07
2023-05-22T18:25:26.746Z,22.90
2023-05-22T18:27:53.408Z,22.78
2023-05-22T18:30:19.869Z,22.62
2023-05-22T18:32:46.459Z,22.67
2023-05-22T18:35:13.086Z,22.66
2023-05-22T18:37:39.496Z,22.64
2023-05-22T18:40:09.051Z,22.55
2023-05-22T18:42:35.954Z,22.47
2023-05-22T18:45:02.775Z,22.30
2023-05-22T18:47:29.441Z,22.30
2023-05-22T18:49:56.078Z,22.18
2023-05-22T18:52:22.629Z,22.03
2023-05-22T18:54:49.246Z,21.99
2023-05-22T18:57:16.060Z,21.88
2023-05-22T18:59:43.474Z,21.79
2023-05-22T19:02:10.188Z,21.68
2023-05-22T19:04:36.873Z,21.44
2023-05-22T19:07:03.603Z,21.26
2023-05-22T19:09:30.166Z,21.29
2023-05-22T19:11:56.811Z,21.30
2023-05-22T19:14:23.431Z,21.18
2023-05-22T19:16:50.204Z,21.17
2023-05-22T19:19:17.148Z,20.92
2023-05-22T19:21:43.689Z,20.73
2023-05-22T19:24:10.128Z,20.71
2023-05-22T19:26:36.760Z,20.75
2023-05-22T19:29:03.313Z,20.69
2023-05-22T19:31:29.814Z,20.55
2023-05-22T19:33:56.324Z,20.49
2023-05-22T19:36:22.831Z,20.43
2023-05-22T19:38:50.225Z,20.48
2023-05-22T19:41:17.853Z,20.35
2023-05-22T19:43:45.109Z,20.23
2023-05-22T19:46:11.736Z,20.16
2023-05-22T19:48:38.394Z,20.11
2023-05-22T19:51:05.170Z,20.06
2023-05-22T19:53:32.607Z,20.10
2023-05-22T19:55:59.426Z,20.02
2023-05-22T19:58:26.094Z,19.97
2023-05-22T20:00:52.733Z,19.88
2023-05-22T20:03:20.402Z,19.89
2023-05-22T20:05:47.156Z,19.82
2023-05-22T20:08:14.245Z,19.82
2023-05-22T20:10:41.063Z,19.82
2023-05-22T20:13:07.774Z,19.91
2023-05-22T20:15:34.374Z,19.90
2023-05-22T20:18:02.564Z,19.95
2023-05-22T20:20:29.485Z,19.88
2023-05-22T20:22:57.874Z,19.81
2023-05-22T20:25:24.495Z,19.73
2023-05-22T20:27:51.028Z,19.71
2023-05-22T20:30:17.686Z,19.66
2023-05-22T20:32:46.273Z,19.52
2023-05-22T20:35:13.255Z,19.41
2023-05-22T20:37:40.979Z,19.29
2023-05-22T20:40:09.479Z,19.18
2023-05-22T20:42:37.812Z,19.14
2023-05-22T20:45:05.639Z,19.08
2023-05-22T20:47:33.887Z,19.18
2023-05-22T20:50:00.583Z,19.19
2023-05-22T20:52:30.557Z,19.18
2023-05-22T20:54:58.336Z,19.12
2023-05-22T20:57:25.555Z,19.05
2023-05-22T20:59:56.162Z,18.95
2023-05-22T21:02:22.704Z,18.82
2023-05-22T21:04:49.191Z,18.74
2023-05-22T21:07:15.879Z,18.67
2023-05-22T21:09:42.342Z,18.61
2023-05-22T21:12:09.021Z,18.67
2023-05-22T21:14:35.819Z,18.75
2023-05-22T21:17:02.468Z,18.74
2023-05-22T21:19:29.086Z,18.80
2023-05-22T21:21:55.841Z,18.78
2023-05-22T21:24:22.330Z,18.82
2023-05-22T21:26:49.537Z,18.89
2023-05-22T21:29:16.049Z,18.84
2023-05-22T21:31:42.552Z,18.79
2023-05-22T21:34:09.741Z,18.71
2023-05-22T21:36:36.568Z,18.67
2023-05-22T21:39:03.629Z,18.67
2023-05-22T21:41:30.595Z,18.68
2023-05-22T21:43:57.819Z,18.74
2023-05-22T21:46:24.681Z,18.72
2023-05-22T21:48:51.390Z,18.71
2023-05-22T21:51:18.084Z,18.67
2023-05-22T21:53:44.958Z,18.65
2023-05-22T21:56:11.582Z,18.62
2023-05-22T21:58:38.037Z,18.62
2023-05-22T22:01:04.685Z,18.59
2023-05-22T22:03:31.214Z,18.62
2023-05-22T22:05:57.830Z,18.61
2023-05-22T22:08:24.442Z,18.60
2023-05-22T22:10:51.804Z,18.57
2023-05-22T22:13:18.379Z,18.54
2023-05-22T22:15:44.856Z,18.52
2023-05-22T22:18:14.959Z,18.56
2023-05-22T22:20:44.952Z,18.49
2023-05-22T22:23:12.527Z,18.48
2023-05-22T22:25:39.365Z,18.47
2023-05-22T22:28:07.146Z,18.49
2023-05-22T22:30:33.686Z,18.38
2023-05-22T22:33:00.597Z,18.31
2023-05-22T22:35:27.266Z,18.29
2023-05-22T22:37:53.832Z,18.25
2023-05-22T22:40:20.465Z,18.27
2023-05-22T22:42:47.060Z,18.26
2023-05-22T22:45:14.695Z,18.27
2023-05-22T22:47:41.570Z,18.28
2023-05-22T22:50:09.962Z,18.26
2023-05-22T22:52:37.849Z,18.23
2023-05-22T22:55:06.271Z,18.25
2023-05-22T22:57:33.089Z,18.22
2023-05-22T22:59:59.656Z,18.21
2023-05-22T23:02:26.433Z,18.18
2023-05-22T23:04:53.101Z,18.13
2023-05-22T23:07:19.642Z,18.09
2023-05-22T23:09:46.127Z,18.07
2023-05-22T23:12:12.689Z,18.04
2023-05-22T23:14:39.199Z,17.98
2023-05-22T23:17:05.807Z,17.98
2023-05-22T23:19:32.403Z,17.96
2023-05-22T23:21:59.029Z,17.91
2023-05-22T23:24:25.579Z,17.87
2023-05-22T23:26:53.143Z,17.88
2023-05-22T23:29:20.222Z,17.86
2023-05-22T23:31:47.556Z,17.85
2023-05-22T23:34:14.333Z,17.81
2023-05-22T23:36:41.102Z,17.79
2023-05-22T23:39:07.722Z,17.76
2023-05-22T23:41:35.392Z,17.69
2023-05-22T23:44:02.647Z,17.68
2023-05-22T23:46:29.431Z,17.65
2023-05-22T23:48:56.352Z,17.65
2023-05-22T23:51:22.989Z,17.68
2023-05-22T23:53:49.638Z,17.65
2023-05-22T23:56:17.096Z,17.68
2023-05-22T23:58:43.603Z,17.69
